Time;durP1;ratioP1;P1;durP2;ratioP2;P2;SDS_P1;SDS_P2;PMS_P1;PMS_P2;Temp;Humidity;BMP_temperature;BMP_pressure;BME280_temperature;BME280_humidity;BME280_pressure;Samples;Min_cycle;Max_cycle;Signal;HPM_P1;HPM_P2
2022/04/07 00:00:54;;;;;;;;;;;;;;;;;;2107193;28;19924;-49
2022/04/07 00:01:55;;;;;;;;;;;;;;;;;;2106852;28;20326;-48
2022/04/07 00:02:56;;;;;;;;;;;;;;;;;;2107050;28;19947;-49
2022/04/07 00:03:57;;;;;;;;;;;;;;;;;;2106927;28;19935;-49
2022/04/07 00:04:58;;;;;;;;;;;;;;;;;;2106790;28;19924;-48
2022/04/07 00:06:00;;;;;;;;;;;;;;;;;;2106967;28;20396;-50
2022/04/07 00:07:01;;;;;;;;;;;;;;;;;;2106760;28;20313;-52
2022/04/07 00:08:02;;;;;;;;;;;;;;;;;;2106876;28;19964;-49
2022/04/07 00:09:03;;;;;;;;;;;;;;;;;;2106891;28;20285;-50
2022/04/07 00:10:04;;;;;;;;;;;;;;;;;;2107023;28;19924;-48
2022/04/07 00:11:05;;;;;;;;;;;;;;;;;;2106807;28;19950;-49
2022/04/07 00:12:06;;;;;;;;;;;;;;;;;;2106957;28;19939;-48
2022/04/07 00:13:07;;;;;;;;;;;;;;;;;;2107034;28;19986;-49
2022/04/07 00:14:08;;;;;;;;;;;;;;;;;;2104668;28;19924;-50
2022/04/07 00:15:09;;;;;;;;;;;;;;;;;;2098815;28;19924;-49
2022/04/07 00:16:11;;;;;;;;;;;;;;;;;;2098415;28;20019;-48
2022/04/07 00:17:11;;;;;;;;;;;;;;;;;;2098536;28;20023;-49
2022/04/07 00:18:13;;;;;;;;;;;;;;;;;;2098805;28;19924;-49
2022/04/07 00:19:14;;;;;;;;;;;;;;;;;;2098632;28;19978;-49
2022/04/07 00:20:16;;;;;;;;;;;;;;;;;;2098432;28;19924;-49
2022/04/07 00:21:24;;;;;;;;;;;;;;;;;;2098541;28;19928;-49
2022/04/07 00:22:25;;;;;;;;;;;;;;;;;;2098440;28;19924;-49
2022/04/07 00:23:26;;;;;;;;;;;;;;;;;;2098603;28;19935;-49
2022/04/07 00:24:27;;;;;;;;;;;;;;;;;;2098540;28;20365;-50
2022/04/07 00:25:28;;;;;;;;;;;;;;;;;;2100536;28;20344;-50
2022/04/07 00:26:29;;;;;;;;;;;;;;;;;;2106741;28;19924;-50
2022/04/07 00:27:30;;;;;;;;;;;;;;;;;;2106791;28;20263;-50
2022/04/07 00:28:31;;;;;;;;;;;;;;;;;;2106865;28;19938;-52
2022/04/07 00:29:33;;;;;;;;;;;;;;;;;;2106551;28;19932;-49
2022/04/07 00:30:37;;;;;;;;;;;;;;;;;;2106910;28;19928;-49
2022/04/07 00:31:41;;;;;;;;;;;;;;;;;;2106712;28;19969;-49
2022/04/07 00:32:43;;;;;;;;;;;;;;;;;;2106692;28;19924;-48
2022/04/07 00:33:44;;;;;;;;;;;;;;;;;;2106833;28;19924;-48
2022/04/07 00:34:48;;;;;;;;;;;;;;;;;;2106931;28;19924;-49
2022/04/07 00:35:49;;;;;;;;;;;;;;;;;;2106729;28;19931;-48
2022/04/07 00:36:50;;;;;;;;;;;;;;;;;;2106627;28;19932;-49
2022/04/07 00:37:51;;;;;;;;;;;;;;;;;;2105528;28;19931;-49
2022/04/07 00:38:52;;;;;;;;;;;;;;;;;;2106523;28;19924;-48
2022/04/07 00:39:53;;;;;;;;;;;;;;;;;;2107030;28;19924;-44
2022/04/07 00:40:54;;;;;;;;;;;;;;;;;;2106672;28;19924;-44
2022/04/07 00:41:55;;;;;;;;;;;;;;;;;;2106968;28;20395;-49
2022/04/07 00:42:56;;;;;;;;;;;;;;;;;;2106659;28;19974;-49
2022/04/07 00:43:57;;;;;;;;;;;;;;;;;;2106804;28;19932;-49
2022/04/07 00:44:58;;;;;;;;;;;;;;;;;;2106668;28;19957;-49
2022/04/07 00:45:59;;;;;;;;;;;;;;;;;;2106888;28;19924;-49
2022/04/07 00:47:00;;;;;;;;;;;;;;;;;;2106608;28;20262;-49
2022/04/07 00:48:02;;;;;;;;;;;;;;;;;;2106728;28;19924;-49
2022/04/07 00:49:03;;;;;;;;;;;;;;;;;;2106618;28;19931;-49
2022/04/07 00:50:04;;;;;;;;;;;;;;;;;;2106667;28;19924;-49
2022/04/07 00:51:04;;;;;;;;;;;;;;;;;;2106787;28;19978;-49
2022/04/07 00:52:06;;;;;;;;;;;;;;;;;;2106538;28;20396;-49
2022/04/07 00:53:06;;;;;;;;;;;;;;;;;;2106845;28;20377;-44
2022/04/07 00:54:08;;;;;;;;;;;;;;;;;;2106634;28;20014;-44
2022/04/07 00:55:09;;;;;;;;;;;;;;;;;;2106564;28;19931;-44
2022/04/07 00:56:10;;;;;;;;;;;;;;;;;;2106655;28;19932;-44
2022/04/07 00:57:11;;;;;;;;;;;;;;;;;;2106858;28;19931;-44
2022/04/07 00:58:12;;;;;;;;;;;;;;;;;;2105850;28;19935;-44
2022/04/07 00:59:13;;;;;;;;;;;;;;;;;;2107079;28;20010;-49
2022/04/07 01:00:14;;;;;;;;;;;;;;;;;;2106642;28;19924;-48
2022/04/07 01:01:16;;;;;;;;;;;;;;;;;;2106431;28;19928;-49
2022/04/07 01:02:17;;;;;;;;;;;;;;;;;;2106679;28;20011;-48
2022/04/07 01:03:18;;;;;;;;;;;;;;;;;;2106612;28;19928;-48
2022/04/07 01:04:19;;;;;;;;;;;;;;;;;;2106640;28;19932;-48
2022/04/07 01:05:23;;;;;;;;;;;;;;;;;;2106583;28;19928;-49
2022/04/07 01:06:23;;;;;;;;;;;;;;;;;;2106378;28;19924;-49
2022/04/07 01:07:25;;;;;;;;;;;;;;;;;;2106883;28;19932;-49
2022/04/07 01:08:26;;;;;;;;;;;;;;;;;;2106573;28;20335;-51
2022/04/07 01:09:27;;;;;;;;;;;;;;;;;;2106615;28;19924;-48
2022/04/07 01:10:29;;;;;;;;;;;;;;;;;;2106784;28;19932;-49
2022/04/07 01:11:30;;;;;;;;;;;;;;;;;;2106456;28;20297;-52
2022/04/07 01:12:31;;;;;;;;;;;;;;;;;;2106409;28;20006;-49
2022/04/07 01:13:32;;;;;;;;;;;;;;;;;;2106499;28;19932;-49
2022/04/07 01:14:34;;;;;;;;;;;;;;;;;;2106590;28;19931;-44
2022/04/07 01:15:34;;;;;;;;;;;;;;;;;;2106629;28;20365;-48
2022/04/07 01:16:36;;;;;;;;;;;;;;;;;;2106385;28;19924;-49
2022/04/07 01:17:38;;;;;;;;;;;;;;;;;;2106619;28;20019;-48
2022/04/07 01:18:39;;;;;;;;;;;;;;;;;;2106295;28;20289;-49
2022/04/07 01:19:40;;;;;;;;;;;;;;;;;;2106581;28;20007;-48
2022/04/07 01:20:41;;;;;;;;;;;;;;;;;;2106468;28;19933;-49
2022/04/07 01:21:42;;;;;;;;;;;;;;;;;;2106027;28;20296;-49
2022/04/07 01:22:44;;;;;;;;;;;;;;;;;;2106468;28;20366;-49
2022/04/07 01:23:45;;;;;;;;;;;;;;;;;;2106497;28;19924;-48
2022/04/07 01:24:47;;;;;;;;;;;;;;;;;;2106660;28;20152;-48
2022/04/07 01:25:49;;;;;;;;;;;;;;;;;;2106379;28;19928;-49
2022/04/07 01:26:51;;;;;;;;;;;;;;;;;;2106395;28;19923;-48
2022/04/07 01:27:52;;;;;;;;;;;;;;;;;;2106014;28;20438;-43
2022/04/07 01:28:53;;;;;;;;;;;;;;;;;;2106810;28;19996;-44
2022/04/07 01:29:54;;;;;;;;;;;;;;;;;;2106372;28;20019;-44
2022/04/07 01:30:55;;;;;;;;;;;;;;;;;;2106440;28;19943;-44
2022/04/07 01:31:56;;;;;;;;;;;;;;;;;;2106336;28;19970;-44
2022/04/07 01:32:57;;;;;;;;;;;;;;;;;;2106756;28;19924;-49
2022/04/07 01:33:58;;;;;;;;;;;;;;;;;;2106418;28;19928;-50
2022/04/07 01:34:59;;;;;;;;;;;;;;;;;;2106457;28;20173;-49
2022/04/07 01:36:00;;;;;;;;;;;;;;;;;;2106483;28;19924;-49
2022/04/07 01:37:00;;;;;;;;;;;;;;;;;;2106249;28;19924;-49
2022/04/07 01:38:02;;;;;;;;;;;;;;;;;;2106453;28;20352;-49
2022/04/07 01:39:03;;;;;;;;;;;;;;;;;;2106102;28;19924;-44
2022/04/07 01:40:04;;;;;;;;;;;;;;;;;;2106375;28;20364;-44
2022/04/07 01:41:05;;;;;;;;;;;;;;;;;;2106286;28;19924;-44
2022/04/07 01:42:06;;;;;;;;;;;;;;;;;;2106345;28;20289;-44
2022/04/07 01:43:07;;;;;;;;;;;;;;;;;;2106349;28;19924;-44
2022/04/07 01:44:08;;;;;;;;;;;;;;;;;;2106272;28;20297;-44
2022/04/07 01:45:11;;;;;;;;;;;;;;;;;;2106380;28;20215;-44
2022/04/07 01:46:12;;;;;;;;;;;;;;;;;;2106288;28;20421;-44
2022/04/07 01:47:13;;;;;;;;;;;;;;;;;;2106347;28;20301;-44
2022/04/07 01:48:14;;;;;;;;;;;;;;;;;;2106361;28;19924;-44
2022/04/07 01:49:15;;;;;;;;;;;;;;;;;;2105794;28;19924;-44
2022/04/07 01:50:16;;;;;;;;;;;;;;;;;;2106472;28;19944;-50
2022/04/07 01:51:17;;;;;;;;;;;;;;;;;;2106171;28;20411;-48
2022/04/07 01:52:18;;;;;;;;;;;;;;;;;;2105915;28;19928;-52
2022/04/07 01:53:19;;;;;;;;;;;;;;;;;;2106236;28;20308;-49
2022/04/07 01:54:21;;;;;;;;;;;;;;;;;;2106407;28;19924;-49
2022/04/07 01:55:22;;;;;;;;;;;;;;;;;;2106168;28;19924;-52
2022/04/07 01:56:23;;;;;;;;;;;;;;;;;;2106339;28;20377;-52
2022/04/07 01:57:24;;;;;;;;;;;;;;;;;;2106347;28;19944;-49
2022/04/07 01:58:25;;;;;;;;;;;;;;;;;;2106273;28;19998;-52
2022/04/07 01:59:26;;;;;;;;;;;;;;;;;;2106176;28;19924;-51
2022/04/07 02:00:27;;;;;;;;;;;;;;;;;;2106288;28;19928;-52
2022/04/07 02:01:28;;;;;;;;;;;;;;;;;;2106250;28;20419;-49
2022/04/07 02:02:29;;;;;;;;;;;;;;;;;;2106234;28;19924;-49
2022/04/07 02:03:30;;;;;;;;;;;;;;;;;;2106168;28;20285;-51
2022/04/07 02:04:31;;;;;;;;;;;;;;;;;;2106234;28;19935;-50
2022/04/07 02:05:33;;;;;;;;;;;;;;;;;;2106307;28;19931;-53
2022/04/07 02:06:34;;;;;;;;;;;;;;;;;;2106054;28;19924;-48
2022/04/07 02:07:35;;;;;;;;;;;;;;;;;;2106107;28;20393;-49
2022/04/07 02:08:36;;;;;;;;;;;;;;;;;;2106171;28;19931;-50
2022/04/07 02:09:37;;;;;;;;;;;;;;;;;;2106338;28;19935;-52
2022/04/07 02:10:38;;;;;;;;;;;;;;;;;;2106161;28;20358;-49
2022/04/07 02:11:41;;;;;;;;;;;;;;;;;;2106326;28;19928;-52
2022/04/07 02:12:42;;;;;;;;;;;;;;;;;;2106115;28;19936;-49
2022/04/07 02:13:43;;;;;;;;;;;;;;;;;;2106089;28;20562;-49
2022/04/07 02:14:44;;;;;;;;;;;;;;;;;;2099031;28;19925;-49
2022/04/07 02:15:45;;;;;;;;;;;;;;;;;;2097741;28;20401;-48
2022/04/07 02:16:47;;;;;;;;;;;;;;;;;;2097707;28;20011;-49
2022/04/07 02:17:49;;;;;;;;;;;;;;;;;;2097978;28;20374;-49
2022/04/07 02:18:50;;;;;;;;;;;;;;;;;;2106196;28;19924;-49
2022/04/07 02:19:51;;;;;;;;;;;;;;;;;;2106073;28;19928;-50
2022/04/07 02:20:52;;;;;;;;;;;;;;;;;;2106190;28;19924;-47
2022/04/07 02:21:53;;;;;;;;;;;;;;;;;;2106222;28;19924;-44
2022/04/07 02:22:54;;;;;;;;;;;;;;;;;;2106186;28;19931;-44
2022/04/07 02:23:56;;;;;;;;;;;;;;;;;;2106083;28;20289;-44
2022/04/07 02:24:57;;;;;;;;;;;;;;;;;;2106109;28;19974;-44
2022/04/07 02:25:58;;;;;;;;;;;;;;;;;;2106066;28;19935;-44
2022/04/07 02:26:59;;;;;;;;;;;;;;;;;;2106144;28;19931;-44
2022/04/07 02:28:00;;;;;;;;;;;;;;;;;;2106130;28;20151;-44
2022/04/07 02:29:01;;;;;;;;;;;;;;;;;;2106019;28;19928;-44
2022/04/07 02:30:02;;;;;;;;;;;;;;;;;;2106074;28;20297;-44
2022/04/07 02:31:03;;;;;;;;;;;;;;;;;;2106037;28;20000;-44
2022/04/07 02:32:04;;;;;;;;;;;;;;;;;;2106161;28;19924;-44
2022/04/07 02:33:05;;;;;;;;;;;;;;;;;;2106245;28;20392;-46
2022/04/07 02:34:07;;;;;;;;;;;;;;;;;;2106066;28;20044;-51
2022/04/07 02:35:08;;;;;;;;;;;;;;;;;;2106109;28;19928;-49
2022/04/07 02:36:09;;;;;;;;;;;;;;;;;;2106521;28;19931;-44
2022/04/07 02:37:10;;;;;;;;;;;;;;;;;;2106061;28;19924;-44
2022/04/07 02:38:11;;;;;;;;;;;;;;;;;;2106072;28;19931;-45
2022/04/07 02:39:12;;;;;;;;;;;;;;;;;;2106034;28;20400;-44
2022/04/07 02:40:13;;;;;;;;;;;;;;;;;;2105973;28;19947;-44
2022/04/07 02:41:14;;;;;;;;;;;;;;;;;;2105885;28;19924;-43
2022/04/07 02:42:15;;;;;;;;;;;;;;;;;;2105772;28;20401;-51
2022/04/07 02:43:16;;;;;;;;;;;;;;;;;;2106002;28;19924;-50
2022/04/07 02:44:18;;;;;;;;;;;;;;;;;;2106039;28;19946;-49
2022/04/07 02:45:19;;;;;;;;;;;;;;;;;;2106169;28;19924;-48
2022/04/07 02:46:20;;;;;;;;;;;;;;;;;;2105605;28;19928;-44
2022/04/07 02:47:21;;;;;;;;;;;;;;;;;;2106110;28;19924;-44
2022/04/07 02:48:22;;;;;;;;;;;;;;;;;;2106158;28;19925;-45
2022/04/07 02:49:24;;;;;;;;;;;;;;;;;;2106001;28;19973;-50
2022/04/07 02:50:25;;;;;;;;;;;;;;;;;;2106110;28;19924;-50
2022/04/07 02:51:26;;;;;;;;;;;;;;;;;;2105824;28;19924;-48
2022/04/07 02:52:27;;;;;;;;;;;;;;;;;;2105875;28;20393;-50
2022/04/07 02:53:29;;;;;;;;;;;;;;;;;;2105981;28;19950;-49
2022/04/07 02:54:29;;;;;;;;;;;;;;;;;;2106080;28;19924;-50
2022/04/07 02:55:31;;;;;;;;;;;;;;;;;;2105837;28;19924;-50
2022/04/07 02:56:32;;;;;;;;;;;;;;;;;;2105965;28;19931;-48
2022/04/07 02:57:33;;;;;;;;;;;;;;;;;;2106094;28;20367;-51
2022/04/07 02:58:34;;;;;;;;;;;;;;;;;;2105999;28;19928;-49
2022/04/07 02:59:35;;;;;;;;;;;;;;;;;;2106084;28;19924;-49
2022/04/07 03:00:36;;;;;;;;;;;;;;;;;;2106121;28;19947;-44
2022/04/07 03:01:37;;;;;;;;;;;;;;;;;;2106951;28;19924;-44
2022/04/07 03:02:38;;;;;;;;;;;;;;;;;;2107349;28;20292;-43
2022/04/07 03:03:39;;;;;;;;;;;;;;;;;;2107368;28;19924;-44
2022/04/07 03:04:40;;;;;;;;;;;;;;;;;;2107243;28;19924;-44
2022/04/07 03:05:41;;;;;;;;;;;;;;;;;;2107643;28;19973;-49
2022/04/07 03:06:42;;;;;;;;;;;;;;;;;;2107323;28;19939;-48
2022/04/07 03:07:43;;;;;;;;;;;;;;;;;;2107346;28;19924;-50
2022/04/07 03:08:45;;;;;;;;;;;;;;;;;;2107337;28;19924;-48
2022/04/07 03:09:46;;;;;;;;;;;;;;;;;;2107410;28;20339;-50
2022/04/07 03:10:47;;;;;;;;;;;;;;;;;;2107433;28;19924;-44
2022/04/07 03:11:48;;;;;;;;;;;;;;;;;;2107213;28;19928;-44
2022/04/07 03:12:49;;;;;;;;;;;;;;;;;;2107325;28;19943;-43
2022/04/07 03:13:50;;;;;;;;;;;;;;;;;;2107143;28;19924;-44
2022/04/07 03:14:51;;;;;;;;;;;;;;;;;;2107118;28;19924;-50
2022/04/07 03:15:52;;;;;;;;;;;;;;;;;;2107357;28;19924;-48
2022/04/07 03:16:54;;;;;;;;;;;;;;;;;;2107238;28;20322;-52
2022/04/07 03:17:55;;;;;;;;;;;;;;;;;;2107329;28;19932;-48
2022/04/07 03:18:56;;;;;;;;;;;;;;;;;;2107381;28;19924;-44
2022/04/07 03:19:56;;;;;;;;;;;;;;;;;;2107436;28;19977;-43
2022/04/07 03:20:58;;;;;;;;;;;;;;;;;;2107586;28;19929;-44
2022/04/07 03:21:59;;;;;;;;;;;;;;;;;;2107654;28;19924;-44
2022/04/07 03:23:00;;;;;;;;;;;;;;;;;;2107286;28;19924;-49
2022/04/07 03:24:01;;;;;;;;;;;;;;;;;;2107580;28;19924;-49
2022/04/07 03:25:02;;;;;;;;;;;;;;;;;;2107207;28;19924;-50
2022/04/07 03:26:03;;;;;;;;;;;;;;;;;;2107320;28;19931;-51
2022/04/07 03:27:05;;;;;;;;;;;;;;;;;;2107419;28;19973;-44
2022/04/07 03:28:07;;;;;;;;;;;;;;;;;;2107202;28;19978;-44
2022/04/07 03:29:07;;;;;;;;;;;;;;;;;;2107224;28;19958;-44
2022/04/07 03:30:08;;;;;;;;;;;;;;;;;;2107360;28;19989;-44
2022/04/07 03:31:09;;;;;;;;;;;;;;;;;;2107094;28;19924;-44
2022/04/07 03:32:10;;;;;;;;;;;;;;;;;;2107098;28;19924;-44
2022/04/07 03:33:11;;;;;;;;;;;;;;;;;;2107228;28;20423;-44
2022/04/07 03:34:13;;;;;;;;;;;;;;;;;;2107521;28;20014;-44
2022/04/07 03:35:14;;;;;;;;;;;;;;;;;;2107505;28;20374;-44
2022/04/07 03:36:15;;;;;;;;;;;;;;;;;;2107018;28;19983;-44
2022/04/07 03:37:17;;;;;;;;;;;;;;;;;;2107298;28;19931;-43
2022/04/07 03:38:18;;;;;;;;;;;;;;;;;;2107015;28;19935;-44
2022/04/07 03:39:19;;;;;;;;;;;;;;;;;;2107236;28;20376;-44
2022/04/07 03:40:20;;;;;;;;;;;;;;;;;;2107072;28;20450;-43
2022/04/07 03:41:22;;;;;;;;;;;;;;;;;;2107167;28;19973;-50
2022/04/07 03:42:24;;;;;;;;;;;;;;;;;;2107291;28;19924;-48
2022/04/07 03:43:25;;;;;;;;;;;;;;;;;;2107065;28;19924;-44
2022/04/07 03:44:26;;;;;;;;;;;;;;;;;;2106690;28;20308;-49
2022/04/07 03:45:27;;;;;;;;;;;;;;;;;;2107073;28;19924;-49
2022/04/07 03:46:28;;;;;;;;;;;;;;;;;;2107145;28;19939;-49
2022/04/07 03:47:29;;;;;;;;;;;;;;;;;;2107035;28;19928;-51
2022/04/07 03:48:30;;;;;;;;;;;;;;;;;;2107237;28;19924;-50
2022/04/07 03:49:31;;;;;;;;;;;;;;;;;;2107083;28;20381;-50
2022/04/07 03:50:32;;;;;;;;;;;;;;;;;;2106963;28;19974;-51
2022/04/07 03:51:34;;;;;;;;;;;;;;;;;;2107226;28;19928;-50
2022/04/07 03:52:36;;;;;;;;;;;;;;;;;;2107218;28;19924;-48
2022/04/07 03:53:37;;;;;;;;;;;;;;;;;;2107294;28;19977;-48
2022/04/07 03:54:38;;;;;;;;;;;;;;;;;;2107155;28;19973;-44
2022/04/07 03:55:39;;;;;;;;;;;;;;;;;;2107004;28;20430;-44
2022/04/07 03:56:40;;;;;;;;;;;;;;;;;;2106947;28;20301;-44
2022/04/07 03:57:41;;;;;;;;;;;;;;;;;;2107172;28;19999;-44
2022/04/07 03:58:42;;;;;;;;;;;;;;;;;;2107166;28;19924;-52
2022/04/07 03:59:43;;;;;;;;;;;;;;;;;;2107380;28;19931;-49
2022/04/07 04:00:44;;;;;;;;;;;;;;;;;;2107109;28;19924;-51
2022/04/07 04:01:46;;;;;;;;;;;;;;;;;;2106891;28;19931;-48
2022/04/07 04:02:48;;;;;;;;;;;;;;;;;;2107059;28;19928;-48
2022/04/07 04:03:50;;;;;;;;;;;;;;;;;;2106996;28;20232;-51
2022/04/07 04:04:51;;;;;;;;;;;;;;;;;;2107061;28;19924;-49
2022/04/07 04:05:52;;;;;;;;;;;;;;;;;;2107134;28;19939;-49
2022/04/07 04:06:53;;;;;;;;;;;;;;;;;;2107009;28;19924;-43
2022/04/07 04:07:56;;;;;;;;;;;;;;;;;;2106962;28;19924;-43
2022/04/07 04:08:57;;;;;;;;;;;;;;;;;;2107051;28;20034;-43
2022/04/07 04:09:58;;;;;;;;;;;;;;;;;;2107011;28;20304;-43
2022/04/07 04:10:59;;;;;;;;;;;;;;;;;;2106983;28;19924;-48
2022/04/07 04:12:00;;;;;;;;;;;;;;;;;;2106441;28;20420;-47
2022/04/07 04:13:01;;;;;;;;;;;;;;;;;;2107070;28;19931;-47
2022/04/07 04:14:04;;;;;;;;;;;;;;;;;;2105670;28;20018;-49
2022/04/07 04:15:05;;;;;;;;;;;;;;;;;;2098581;28;20336;-47
2022/04/07 04:16:06;;;;;;;;;;;;;;;;;;2098948;28;19924;-48
2022/04/07 04:17:08;;;;;;;;;;;;;;;;;;2098533;28;20369;-48
2022/04/07 04:18:09;;;;;;;;;;;;;;;;;;2098737;28;19924;-48
2022/04/07 04:19:10;;;;;;;;;;;;;;;;;;2098451;28;19978;-49
2022/04/07 04:20:11;;;;;;;;;;;;;;;;;;2098842;28;19924;-44
2022/04/07 04:21:12;;;;;;;;;;;;;;;;;;2098312;28;20405;-43
2022/04/07 04:22:13;;;;;;;;;;;;;;;;;;2098496;28;19932;-43
2022/04/07 04:23:14;;;;;;;;;;;;;;;;;;2098886;28;19979;-48
2022/04/07 04:24:15;;;;;;;;;;;;;;;;;;2098462;28;20381;-47
2022/04/07 04:25:17;;;;;;;;;;;;;;;;;;2098652;28;19925;-48
2022/04/07 04:26:17;;;;;;;;;;;;;;;;;;2098550;28;20146;-48
2022/04/07 04:27:19;;;;;;;;;;;;;;;;;;2098454;28;19928;-48
2022/04/07 04:28:19;;;;;;;;;;;;;;;;;;2104338;28;20225;-44
2022/04/07 04:29:20;;;;;;;;;;;;;;;;;;2106975;28;19967;-43
2022/04/07 04:30:22;;;;;;;;;;;;;;;;;;2106966;28;20030;-43
2022/04/07 04:31:24;;;;;;;;;;;;;;;;;;2106908;28;19924;-43
2022/04/07 04:32:25;;;;;;;;;;;;;;;;;;2107080;28;19972;-43
2022/04/07 04:33:26;;;;;;;;;;;;;;;;;;2106926;28;20376;-43
2022/04/07 04:34:31;;;;;;;;;;;;;;;;;;2106730;28;20307;-43
2022/04/07 04:35:32;;;;;;;;;;;;;;;;;;2106751;28;19932;-43
2022/04/07 04:36:34;;;;;;;;;;;;;;;;;;2106637;28;20246;-44
2022/04/07 04:37:35;;;;;;;;;;;;;;;;;;2106746;28;20411;-43
2022/04/07 04:38:36;;;;;;;;;;;;;;;;;;2106804;28;19932;-43
2022/04/07 04:39:37;;;;;;;;;;;;;;;;;;2106604;28;20355;-44
2022/04/07 04:40:38;;;;;;;;;;;;;;;;;;2106705;28;20369;-44
2022/04/07 04:41:39;;;;;;;;;;;;;;;;;;2106645;28;19935;-43
2022/04/07 04:42:41;;;;;;;;;;;;;;;;;;2106794;28;19924;-43
2022/04/07 04:43:42;;;;;;;;;;;;;;;;;;2106927;28;19932;-43
2022/04/07 04:44:43;;;;;;;;;;;;;;;;;;2106660;28;20366;-43
2022/04/07 04:45:44;;;;;;;;;;;;;;;;;;2106684;28;19924;-43
2022/04/07 04:46:45;;;;;;;;;;;;;;;;;;2106908;28;19932;-43
2022/04/07 04:47:47;;;;;;;;;;;;;;;;;;2106754;28;19924;-43
2022/04/07 04:48:48;;;;;;;;;;;;;;;;;;2106605;28;20310;-43
2022/04/07 04:49:48;;;;;;;;;;;;;;;;;;2106814;28;19957;-44
2022/04/07 04:50:50;;;;;;;;;;;;;;;;;;2106637;28;20256;-43
2022/04/07 04:51:50;;;;;;;;;;;;;;;;;;2106625;28;19924;-44
2022/04/07 04:52:51;;;;;;;;;;;;;;;;;;2106579;28;20300;-43
2022/04/07 04:53:54;;;;;;;;;;;;;;;;;;2106778;28;19924;-44
2022/04/07 04:54:55;;;;;;;;;;;;;;;;;;2106589;28;19949;-43
2022/04/07 04:55:56;;;;;;;;;;;;;;;;;;2107054;28;19927;-43
2022/04/07 04:56:57;;;;;;;;;;;;;;;;;;2106623;28;19995;-43
2022/04/07 04:57:58;;;;;;;;;;;;;;;;;;2106753;28;19928;-44
2022/04/07 04:58:59;;;;;;;;;;;;;;;;;;2106784;28;19924;-50
2022/04/07 05:00:01;;;;;;;;;;;;;;;;;;2106590;28;19930;-48
2022/04/07 05:01:02;;;;;;;;;;;;;;;;;;2106708;28;19924;-49
2022/04/07 05:02:04;;;;;;;;;;;;;;;;;;2106506;28;19947;-49
2022/04/07 05:03:05;;;;;;;;;;;;;;;;;;2106852;28;19931;-49
2022/04/07 05:04:06;;;;;;;;;;;;;;;;;;2106569;28;19947;-48
2022/04/07 05:05:07;;;;;;;;;;;;;;;;;;2106784;28;19924;-43
2022/04/07 05:06:09;;;;;;;;;;;;;;;;;;2106686;28;20022;-48
2022/04/07 05:07:10;;;;;;;;;;;;;;;;;;2106391;28;19925;-50
2022/04/07 05:08:11;;;;;;;;;;;;;;;;;;2106594;28;19924;-49
2022/04/07 05:09:12;;;;;;;;;;;;;;;;;;2106666;28;19977;-48
2022/04/07 05:10:13;;;;;;;;;;;;;;;;;;2106476;28;19935;-48
2022/04/07 05:11:14;;;;;;;;;;;;;;;;;;2106377;28;19931;-48
2022/04/07 05:12:15;;;;;;;;;;;;;;;;;;2106549;28;20483;-48
2022/04/07 05:13:16;;;;;;;;;;;;;;;;;;2106590;28;19970;-43
2022/04/07 05:14:17;;;;;;;;;;;;;;;;;;2103315;28;19924;-44
2022/04/07 05:15:18;;;;;;;;;;;;;;;;;;2098146;28;20432;-44
2022/04/07 05:16:19;;;;;;;;;;;;;;;;;;2098493;28;19924;-49
2022/04/07 05:17:20;;;;;;;;;;;;;;;;;;2098076;28;20430;-49
2022/04/07 05:18:21;;;;;;;;;;;;;;;;;;2098147;28;19981;-49
2022/04/07 05:19:22;;;;;;;;;;;;;;;;;;2097993;28;19924;-49
2022/04/07 05:20:23;;;;;;;;;;;;;;;;;;2098445;28;19924;-50
2022/04/07 05:21:24;;;;;;;;;;;;;;;;;;2098217;28;19924;-49
2022/04/07 05:22:25;;;;;;;;;;;;;;;;;;2098006;28;19931;-48
2022/04/07 05:23:26;;;;;;;;;;;;;;;;;;2098089;28;19924;-48
2022/04/07 05:24:27;;;;;;;;;;;;;;;;;;2097408;28;20369;-50
2022/04/07 05:25:28;;;;;;;;;;;;;;;;;;2098062;28;19932;-49
2022/04/07 05:26:30;;;;;;;;;;;;;;;;;;2097915;28;19925;-49
2022/04/07 05:27:32;;;;;;;;;;;;;;;;;;2098060;28;19953;-50
2022/04/07 05:28:33;;;;;;;;;;;;;;;;;;2097976;28;19940;-49
2022/04/07 05:29:34;;;;;;;;;;;;;;;;;;2098010;28;19925;-52
2022/04/07 05:30:35;;;;;;;;;;;;;;;;;;2098369;28;19924;-50
2022/04/07 05:31:36;;;;;;;;;;;;;;;;;;2098167;28;20301;-52
2022/04/07 05:32:37;;;;;;;;;;;;;;;;;;2098011;28;19925;-50
2022/04/07 05:33:39;;;;;;;;;;;;;;;;;;2097955;28;19928;-52
2022/04/07 05:34:41;;;;;;;;;;;;;;;;;;2098174;28;20141;-50
2022/04/07 05:35:42;;;;;;;;;;;;;;;;;;2097990;28;19925;-50
2022/04/07 05:36:43;;;;;;;;;;;;;;;;;;2098045;28;19932;-48
2022/04/07 05:37:44;;;;;;;;;;;;;;;;;;2098106;28;19947;-50
2022/04/07 05:38:45;;;;;;;;;;;;;;;;;;2097913;28;19931;-51
2022/04/07 05:39:46;;;;;;;;;;;;;;;;;;2098207;28;19928;-47
2022/04/07 05:40:47;;;;;;;;;;;;;;;;;;2098407;28;20142;-48
2022/04/07 05:41:48;;;;;;;;;;;;;;;;;;2097895;28;19943;-49
2022/04/07 05:42:49;;;;;;;;;;;;;;;;;;2098149;28;19968;-49
2022/04/07 05:43:51;;;;;;;;;;;;;;;;;;2097822;28;20301;-47
2022/04/07 05:44:52;;;;;;;;;;;;;;;;;;2097932;28;19924;-49
2022/04/07 05:45:53;;;;;;;;;;;;;;;;;;2097976;28;20023;-48
2022/04/07 05:46:54;;;;;;;;;;;;;;;;;;2097724;28;19924;-48
2022/04/07 05:47:55;;;;;;;;;;;;;;;;;;2098126;28;19948;-44
2022/04/07 05:48:56;;;;;;;;;;;;;;;;;;2097971;28;19978;-45
2022/04/07 05:49:57;;;;;;;;;;;;;;;;;;2097881;28;20418;-44
2022/04/07 05:50:58;;;;;;;;;;;;;;;;;;2098025;28;20155;-43
2022/04/07 05:52:01;;;;;;;;;;;;;;;;;;2097837;28;20298;-45
2022/04/07 05:53:01;;;;;;;;;;;;;;;;;;2097552;28;19970;-48
2022/04/07 05:54:03;;;;;;;;;;;;;;;;;;2098216;28;19928;-50
2022/04/07 05:55:04;;;;;;;;;;;;;;;;;;2098154;28;19931;-48
2022/04/07 05:56:05;;;;;;;;;;;;;;;;;;2097719;28;19925;-48
2022/04/07 05:57:06;;;;;;;;;;;;;;;;;;2097819;28;20279;-48
2022/04/07 05:58:07;;;;;;;;;;;;;;;;;;2097918;28;19925;-48
2022/04/07 05:59:08;;;;;;;;;;;;;;;;;;2098080;28;19928;-48
2022/04/07 06:00:10;;;;;;;;;;;;;;;;;;2098295;28;19932;-43
2022/04/07 06:01:12;;;;;;;;;;;;;;;;;;2097721;28;19924;-44
2022/04/07 06:02:12;;;;;;;;;;;;;;;;;;2097857;28;19935;-43
2022/04/07 06:03:14;;;;;;;;;;;;;;;;;;2102187;28;19924;-51
2022/04/07 06:04:14;;;;;;;;;;;;;;;;;;2106296;28;19925;-48
2022/04/07 06:05:18;;;;;;;;;;;;;;;;;;2106321;28;20425;-49
2022/04/07 06:06:19;;;;;;;;;;;;;;;;;;2106455;28;19959;-50
2022/04/07 06:07:20;;;;;;;;;;;;;;;;;;2106137;28;20424;-48
2022/04/07 06:08:21;;;;;;;;;;;;;;;;;;2106551;28;20079;-42
2022/04/07 06:09:22;;;;;;;;;;;;;;;;;;2106493;28;20285;-47
2022/04/07 06:10:23;;;;;;;;;;;;;;;;;;2106164;28;19947;-47
2022/04/07 06:11:24;;;;;;;;;;;;;;;;;;2106053;28;19932;-47
2022/04/07 06:12:25;;;;;;;;;;;;;;;;;;2106280;28;19931;-47
2022/04/07 06:13:26;;;;;;;;;;;;;;;;;;2106572;28;19947;-47
2022/04/07 06:14:27;;;;;;;;;;;;;;;;;;2101440;28;20391;-46
2022/04/07 06:15:29;;;;;;;;;;;;;;;;;;2098206;28;19964;-47
2022/04/07 06:16:30;;;;;;;;;;;;;;;;;;2097794;28;19925;-48
2022/04/07 06:17:31;;;;;;;;;;;;;;;;;;2097864;28;19971;-46
2022/04/07 06:18:32;;;;;;;;;;;;;;;;;;2097804;28;19925;-47
2022/04/07 06:19:33;;;;;;;;;;;;;;;;;;2097893;28;19931;-48
2022/04/07 06:20:34;;;;;;;;;;;;;;;;;;2097825;28;19931;-42
2022/04/07 06:21:35;;;;;;;;;;;;;;;;;;2097791;28;19970;-42
2022/04/07 06:22:37;;;;;;;;;;;;;;;;;;2097830;28;19931;-43
2022/04/07 06:23:39;;;;;;;;;;;;;;;;;;2098047;28;19925;-47
2022/04/07 06:24:40;;;;;;;;;;;;;;;;;;2097704;28;19932;-47
2022/04/07 06:25:42;;;;;;;;;;;;;;;;;;2100588;28;19935;-43
2022/04/07 06:26:42;;;;;;;;;;;;;;;;;;2106007;28;20277;-42
2022/04/07 06:27:44;;;;;;;;;;;;;;;;;;2106304;28;20382;-48
2022/04/07 06:28:45;;;;;;;;;;;;;;;;;;2105956;28;19931;-48
2022/04/07 06:29:46;;;;;;;;;;;;;;;;;;2105910;28;20018;-48
2022/04/07 06:30:47;;;;;;;;;;;;;;;;;;2106503;28;19954;-42
2022/04/07 06:31:48;;;;;;;;;;;;;;;;;;2106048;28;19928;-42
2022/04/07 06:32:55;;;;;;;;;;;;;;;;;;2106182;28;19924;-43
2022/04/07 06:33:56;;;;;;;;;;;;;;;;;;2105547;28;19924;-43
2022/04/07 06:35:07;;;;;;;;;;;;;;;;;;2106668;28;19928;-42
2022/04/07 06:36:09;;;;;;;;;;;;;;;;;;2107465;28;20015;-43
2022/04/07 06:37:09;;;;;;;;;;;;;;;;;;2107740;28;19924;-42
2022/04/07 06:38:10;;;;;;;;;;;;;;;;;;2106941;28;19924;-43
2022/04/07 06:39:12;;;;;;;;;;;;;;;;;;2107677;28;20297;-43
2022/04/07 06:40:13;;;;;;;;;;;;;;;;;;2107636;28;20287;-43
2022/04/07 06:41:14;;;;;;;;;;;;;;;;;;2107378;28;20301;-43
2022/04/07 06:42:16;;;;;;;;;;;;;;;;;;2107675;28;20391;-48
2022/04/07 06:43:19;;;;;;;;;;;;;;;;;;2107370;28;19931;-47
2022/04/07 06:44:20;;;;;;;;;;;;;;;;;;2107095;28;19924;-43
2022/04/07 06:45:21;;;;;;;;;;;;;;;;;;2107784;28;19947;-48
2022/04/07 06:46:22;;;;;;;;;;;;;;;;;;2107712;28;20040;-43
2022/04/07 06:47:23;;;;;;;;;;;;;;;;;;2107445;28;19953;-43
2022/04/07 06:48:24;;;;;;;;;;;;;;;;;;2107451;28;19924;-43
2022/04/07 06:49:25;;;;;;;;;;;;;;;;;;2107530;28;19928;-44
2022/04/07 06:50:26;;;;;;;;;;;;;;;;;;2107679;28;19961;-44
2022/04/07 06:51:28;;;;;;;;;;;;;;;;;;2107561;28;19928;-44
2022/04/07 06:52:29;;;;;;;;;;;;;;;;;;2107413;28;20019;-43
2022/04/07 06:53:31;;;;;;;;;;;;;;;;;;2107934;28;19931;-48
2022/04/07 06:54:32;;;;;;;;;;;;;;;;;;2106765;28;20045;-48
2022/04/07 06:55:33;;;;;;;;;;;;;;;;;;2107050;28;19931;-48
2022/04/07 06:56:38;;;;;;;;;;;;;;;;;;2107235;28;20232;-48
2022/04/07 06:57:39;;;;;;;;;;;;;;;;;;2107650;28;20404;-43
2022/04/07 06:58:40;;;;;;;;;;;;;;;;;;2107293;28;19975;-43